Time;durP1;ratioP1;P1;durP2;ratioP2;P2;SDS_P1;SDS_P2;PMS_P1;PMS_P2;Temp;Humidity;BMP_temperature;BMP_pressure;BME280_temperature;BME280_humidity;BME280_pressure;Samples;Min_cycle;Max_cycle;Signal;HPM_P1;HPM_P2
2020/12/30 00:00:49;;;;;;;8.48;5.05;;;2.00;99.90;;;;;;4982748;28;20049;-72
2020/12/30 00:03:15;;;;;;;8.35;4.82;;;1.90;99.90;;;;;;4981149;28;20034;-71
2020/12/30 00:05:42;;;;;;;8.90;4.63;;;2.00;99.90;;;;;;4980968;28;20963;-72
2020/12/30 00:08:07;;;;;;;7.85;4.72;;;1.90;99.90;;;;;;4981389;28;20058;-72
2020/12/30 00:10:33;;;;;;;8.63;4.47;;;1.80;99.90;;;;;;4982097;28;20631;-71
2020/12/30 00:13:00;;;;;;;7.85;4.68;;;1.70;99.90;;;;;;4981304;28;20850;-71
2020/12/30 00:15:26;;;;;;;8.50;4.55;;;1.70;99.90;;;;;;4978048;28;20077;-71
2020/12/30 00:17:51;;;;;;;10.82;5.20;;;1.70;99.90;;;;;;4979133;28;20137;-72
2020/12/30 00:20:20;;;;;;;9.27;5.28;;;1.70;99.90;;;;;;4980822;28;20109;-71
2020/12/30 00:22:47;;;;;;;9.88;5.50;;;1.60;99.90;;;;;;4980977;28;20125;-71
2020/12/30 00:25:14;;;;;;;7.88;5.40;;;1.50;99.90;;;;;;4981761;28;20033;-71
2020/12/30 00:27:41;;;;;;;8.90;4.82;;;1.50;99.90;;;;;;4982004;28;20049;-71
2020/12/30 00:30:10;;;;;;;7.05;5.20;;;1.50;99.90;;;;;;4982419;28;20027;-72
2020/12/30 00:32:36;;;;;;;10.45;5.32;;;1.40;99.90;;;;;;4981990;28;20120;-71
2020/12/30 00:35:03;;;;;;;8.63;4.85;;;1.40;99.90;;;;;;4981613;28;20027;-72
2020/12/30 00:37:29;;;;;;;8.15;5.28;;;1.40;99.90;;;;;;4980793;28;20041;-72
2020/12/30 00:39:55;;;;;;;8.50;5.03;;;1.30;99.90;;;;;;4977352;28;20026;-72
2020/12/30 00:42:20;;;;;;;10.65;5.60;;;1.30;99.90;;;;;;4978426;28;20502;-72
2020/12/30 00:44:46;;;;;;;8.65;5.47;;;1.30;99.90;;;;;;4970068;28;20108;-72
2020/12/30 00:47:14;;;;;;;9.45;5.35;;;1.30;99.90;;;;;;4977410;28;20104;-73
2020/12/30 00:49:40;;;;;;;7.88;5.20;;;1.30;99.90;;;;;;4995904;28;20026;-72
2020/12/30 00:52:07;;;;;;;11.90;5.32;;;1.30;99.90;;;;;;4980551;28;20038;-72
2020/12/30 00:54:40;;;;;;;8.73;5.57;;;1.30;99.90;;;;;;4980045;28;20035;-72
2020/12/30 00:57:11;;;;;;;8.38;5.40;;;1.40;99.90;;;;;;4979690;28;20815;-71
2020/12/30 00:59:39;;;;;;;9.05;5.53;;;1.40;99.90;;;;;;4974841;28;20256;-71
2020/12/30 01:02:05;;;;;;;13.73;5.68;;;1.40;99.90;;;;;;4979914;28;20132;-72
2020/12/30 01:04:36;;;;;;;10.25;5.32;;;1.40;99.90;;;;;;4979354;28;20038;-72
2020/12/30 01:07:02;;;;;;;11.63;5.25;;;1.40;99.90;;;;;;4981224;28;20034;-72
2020/12/30 01:09:28;;;;;;;7.05;5.13;;;1.40;99.90;;;;;;4964071;28;20454;-72
2020/12/30 01:11:59;;;;;;;10.43;5.13;;;1.40;99.90;;;;;;4980837;28;20144;-71
2020/12/30 01:14:24;;;;;;;9.15;5.22;;;1.40;99.90;;;;;;4977364;28;20545;-72
2020/12/30 01:16:51;;;;;;;8.13;4.63;;;1.30;99.90;;;;;;4977844;28;20043;-71
2020/12/30 01:19:17;;;;;;;8.52;4.93;;;1.20;99.90;;;;;;4980932;28;20038;-72
2020/12/30 01:21:43;;;;;;;8.77;5.22;;;1.10;99.90;;;;;;4980833;28;20989;-72
2020/12/30 01:24:09;;;;;;;8.93;5.25;;;1.00;99.90;;;;;;4963803;28;20124;-72
2020/12/30 01:26:36;;;;;;;7.57;5.07;;;1.00;99.90;;;;;;4980060;28;20062;-72
2020/12/30 01:29:03;;;;;;;9.45;6.05;;;1.10;99.90;;;;;;4979717;28;20117;-72
2020/12/30 01:31:30;;;;;;;9.73;5.45;;;1.20;99.90;;;;;;4963474;28;20030;-72
2020/12/30 01:33:56;;;;;;;7.75;5.38;;;1.30;99.90;;;;;;4980404;28;20038;-72
2020/12/30 01:36:22;;;;;;;9.95;5.35;;;1.30;99.90;;;;;;4977474;28;20046;-71
2020/12/30 01:38:48;;;;;;;8.30;5.10;;;1.30;99.90;;;;;;4993437;28;20053;-72
2020/12/30 01:41:17;;;;;;;9.05;5.30;;;1.40;99.90;;;;;;4979954;28;21008;-72
2020/12/30 01:44:08;;;;;;;7.72;4.72;;;1.40;99.90;;;;;;4980535;28;20141;-72
2020/12/30 01:46:35;;;;;;;8.43;5.47;;;1.30;99.90;;;;;;4978964;28;20045;-72
2020/12/30 01:49:04;;;;;;;9.65;5.30;;;1.30;99.90;;;;;;4978336;28;20027;-71
2020/12/30 01:51:30;;;;;;;8.00;5.40;;;1.20;99.90;;;;;;4980132;28;20046;-71
2020/12/30 01:53:56;;;;;;;10.20;5.32;;;1.30;99.90;;;;;;4977316;28;20026;-71
2020/12/30 01:56:26;;;;;;;10.75;5.30;;;1.30;99.90;;;;;;4979925;28;20498;-71
2020/12/30 01:58:52;;;;;;;11.23;5.97;;;1.30;99.90;;;;;;4980691;28;20026;-71
2020/12/30 02:01:22;;;;;;;10.52;5.20;;;1.40;99.90;;;;;;4979969;28;20049;-72
2020/12/30 02:03:48;;;;;;;7.28;4.82;;;1.40;99.90;;;;;;4979037;28;20034;-71
2020/12/30 02:06:14;;;;;;;8.75;5.15;;;1.50;99.90;;;;;;4978692;28;20026;-71
2020/12/30 02:08:40;;;;;;;7.28;4.90;;;1.50;99.90;;;;;;4980272;28;20037;-72
2020/12/30 02:11:05;;;;;;;7.63;4.60;;;1.60;99.90;;;;;;4975408;28;20043;-72
2020/12/30 02:13:31;;;;;;;11.30;5.00;;;1.60;99.90;;;;;;4980112;28;20069;-72
2020/12/30 02:16:00;;;;;;;9.70;5.10;;;1.60;99.90;;;;;;4979511;28;20039;-72
2020/12/30 02:18:26;;;;;;;8.00;5.30;;;1.60;99.90;;;;;;4968736;28;20083;-72
2020/12/30 02:20:52;;;;;;;9.20;4.93;;;1.70;99.90;;;;;;4974833;28;20435;-72
2020/12/30 02:23:18;;;;;;;8.80;5.50;;;1.60;99.90;;;;;;4978423;28;20121;-72
2020/12/30 02:25:44;;;;;;;8.73;4.80;;;1.60;99.90;;;;;;4980120;28;20037;-72
2020/12/30 02:28:11;;;;;;;9.75;4.78;;;1.60;99.90;;;;;;4975507;28;20395;-72
2020/12/30 02:30:37;;;;;;;10.75;5.15;;;1.60;99.90;;;;;;4980769;28;20052;-72
2020/12/30 02:33:08;;;;;;;9.23;5.13;;;1.60;99.90;;;;;;4979971;28;20790;-72
2020/12/30 02:35:33;;;;;;;5.60;4.18;;;1.50;99.90;;;;;;4973392;28;20027;-72
2020/12/30 02:37:59;;;;;;;9.88;5.35;;;1.40;99.90;;;;;;4972018;28;20152;-72
2020/12/30 02:40:25;;;;;;;9.88;5.22;;;1.40;99.90;;;;;;4977929;28;20102;-72
2020/12/30 02:42:52;;;;;;;9.80;5.18;;;1.40;99.90;;;;;;4978830;28;20038;-72
2020/12/30 02:45:18;;;;;;;7.13;4.97;;;1.40;99.90;;;;;;4979721;28;20799;-71
2020/12/30 02:47:44;;;;;;;11.02;5.22;;;1.40;99.90;;;;;;4978190;28;20653;-72
2020/12/30 02:50:10;;;;;;;8.93;4.78;;;1.50;99.90;;;;;;4979564;28;20031;-71
2020/12/30 02:52:35;;;;;;;10.77;4.93;;;1.50;99.90;;;;;;4978395;28;20037;-71
2020/12/30 02:55:02;;;;;;;11.20;5.10;;;1.50;99.90;;;;;;4977179;28;20046;-71
2020/12/30 02:57:27;;;;;;;10.85;4.80;;;1.40;99.90;;;;;;4978214;28;20050;-71
2020/12/30 02:59:56;;;;;;;7.93;4.68;;;1.50;99.90;;;;;;4972791;28;20038;-71
2020/12/30 03:02:25;;;;;;;9.73;4.82;;;1.40;99.90;;;;;;4978801;28;20176;-72
2020/12/30 03:04:52;;;;;;;10.18;5.03;;;1.50;99.90;;;;;;4997474;28;20042;-71
2020/12/30 03:07:19;;;;;;;8.57;4.57;;;1.50;99.90;;;;;;4980633;28;20026;-71
2020/12/30 03:09:44;;;;;;;7.80;4.68;;;1.60;99.90;;;;;;4981983;28;20080;-72
2020/12/30 03:12:10;;;;;;;7.78;4.55;;;1.70;99.90;;;;;;4982372;28;20042;-71
2020/12/30 03:14:36;;;;;;;9.77;4.50;;;1.70;99.90;;;;;;4982662;28;20026;-72
2020/12/30 03:17:01;;;;;;;9.25;5.43;;;1.80;99.90;;;;;;4982564;28;20927;-72
2020/12/30 03:19:27;;;;;;;7.32;4.07;;;1.70;99.90;;;;;;4983386;28;20050;-71
2020/12/30 03:21:53;;;;;;;7.93;4.40;;;1.80;99.90;;;;;;4984517;28;20038;-72
2020/12/30 03:24:19;;;;;;;8.23;3.95;;;1.70;99.90;;;;;;4982252;28;20042;-72
2020/12/30 03:26:44;;;;;;;8.68;4.28;;;1.70;99.90;;;;;;4966713;28;20042;-72
2020/12/30 03:29:10;;;;;;;8.50;4.53;;;1.70;99.90;;;;;;4982454;28;20027;-72
2020/12/30 03:31:36;;;;;;;7.78;4.30;;;1.70;99.90;;;;;;4982159;28;20043;-72
2020/12/30 03:34:02;;;;;;;9.80;4.57;;;1.60;99.90;;;;;;4981920;28;20108;-71
2020/12/30 03:36:27;;;;;;;9.48;4.97;;;1.50;99.90;;;;;;4983762;28;20042;-72
2020/12/30 03:38:53;;;;;;;8.60;4.63;;;1.50;99.90;;;;;;4983310;28;20089;-71
2020/12/30 03:41:19;;;;;;;10.43;4.88;;;1.50;99.90;;;;;;4983633;28;20092;-72
2020/12/30 03:43:44;;;;;;;12.13;4.45;;;1.50;99.90;;;;;;4983727;28;20037;-72
2020/12/30 03:46:10;;;;;;;9.10;4.75;;;1.40;99.90;;;;;;4976121;28;20030;-72
2020/12/30 03:48:36;;;;;;;10.00;4.90;;;1.40;99.90;;;;;;4982538;28;20038;-71
2020/12/30 03:51:02;;;;;;;6.35;4.20;;;1.40;99.90;;;;;;4981960;28;20804;-72
2020/12/30 03:53:27;;;;;;;7.45;4.45;;;1.30;99.90;;;;;;4981941;28;20121;-71
2020/12/30 03:55:53;;;;;;;6.78;4.60;;;1.30;99.90;;;;;;4981254;28;20034;-71
2020/12/30 03:58:20;;;;;;;6.95;4.63;;;1.40;99.90;;;;;;4982023;28;20044;-71
2020/12/30 04:00:46;;;;;;;11.48;4.70;;;1.40;99.90;;;;;;4981686;28;20030;-72
2020/12/30 04:03:11;;;;;;;7.97;4.90;;;1.40;99.90;;;;;;4978603;28;20041;-71
2020/12/30 04:05:37;;;;;;;7.53;4.30;;;1.40;99.90;;;;;;4982519;28;20717;-72
2020/12/30 04:08:03;;;;;;;9.52;4.68;;;1.40;99.90;;;;;;4980477;28;20102;-72
2020/12/30 04:10:29;;;;;;;8.65;4.65;;;1.40;99.90;;;;;;4981344;28;20041;-72
2020/12/30 04:12:55;;;;;;;8.57;4.95;;;1.40;99.90;;;;;;4982420;28;20026;-71
2020/12/30 04:15:20;;;;;;;6.72;4.30;;;1.30;99.90;;;;;;4979467;28;20034;-72
2020/12/30 04:17:46;;;;;;;8.00;4.70;;;1.30;99.90;;;;;;4982064;28;20505;-72
2020/12/30 04:20:12;;;;;;;6.78;4.60;;;1.30;99.90;;;;;;4975856;28;20112;-72
2020/12/30 04:22:38;;;;;;;9.93;4.85;;;1.30;99.90;;;;;;4981758;28;20139;-72
2020/12/30 04:25:04;;;;;;;7.68;4.50;;;1.30;99.90;;;;;;4980780;28;20076;-73
2020/12/30 04:27:29;;;;;;;9.85;5.15;;;1.40;99.90;;;;;;4982173;28;20041;-75
2020/12/30 04:29:55;;;;;;;9.25;4.95;;;1.30;99.90;;;;;;4981191;28;20637;-74
2020/12/30 04:32:21;;;;;;;11.15;4.95;;;1.40;99.90;;;;;;4968013;28;20034;-75
2020/12/30 04:34:46;;;;;;;10.98;5.07;;;1.30;99.90;;;;;;4976949;28;20666;-74
2020/12/30 04:37:13;;;;;;;7.38;4.35;;;1.30;99.90;;;;;;4981438;28;20030;-75
2020/12/30 04:39:39;;;;;;;8.95;5.22;;;1.30;99.90;;;;;;4980353;28;20640;-74
2020/12/30 04:42:06;;;;;;;7.60;5.30;;;1.30;99.90;;;;;;4974287;28;20041;-75
2020/12/30 04:44:34;;;;;;;8.43;5.20;;;1.30;99.90;;;;;;4976902;28;20034;-75
2020/12/30 04:47:03;;;;;;;11.52;5.90;;;1.30;99.90;;;;;;4981571;28;20042;-75
2020/12/30 04:49:29;;;;;;;9.40;5.57;;;1.40;99.90;;;;;;4982120;28;20494;-72
2020/12/30 04:51:56;;;;;;;11.73;5.72;;;1.40;99.90;;;;;;4981329;28;20030;-72
2020/12/30 04:54:23;;;;;;;12.27;5.65;;;1.40;99.90;;;;;;4981912;28;20395;-72
2020/12/30 04:56:57;;;;;;;12.10;5.72;;;1.40;99.90;;;;;;4995762;28;20124;-72
2020/12/30 04:59:27;;;;;;;10.10;5.25;;;1.40;99.90;;;;;;4981273;28;20042;-72
2020/12/30 05:02:04;;;;;;;9.95;5.30;;;1.40;99.90;;;;;;4978166;28;20037;-71
2020/12/30 05:04:32;;;;;;;7.88;4.72;;;1.30;99.90;;;;;;4981596;28;20034;-71
2020/12/30 05:07:13;;;;;;;11.23;5.55;;;1.30;99.90;;;;;;4980417;28;20030;-71
2020/12/30 05:09:42;;;;;;;9.27;5.55;;;1.40;99.90;;;;;;4995881;28;20034;-72
2020/12/30 05:12:12;;;;;;;11.23;5.95;;;1.30;99.90;;;;;;4980957;28;20087;-71
2020/12/30 05:14:38;;;;;;;9.80;5.45;;;1.40;99.90;;;;;;4977785;28;20105;-71
2020/12/30 05:17:06;;;;;;;10.60;5.50;;;1.30;99.90;;;;;;4980568;28;20047;-70
2020/12/30 05:19:31;;;;;;;9.60;5.78;;;1.30;99.90;;;;;;4979570;28;20061;-71
2020/12/30 05:21:57;;;;;;;11.05;6.00;;;1.30;99.90;;;;;;4979171;28;20073;-71
2020/12/30 05:24:23;;;;;;;9.63;5.80;;;1.30;99.90;;;;;;4980390;28;20038;-71
2020/12/30 05:26:49;;;;;;;11.52;5.97;;;1.20;99.90;;;;;;4973020;28;20121;-71
2020/12/30 05:29:16;;;;;;;9.20;5.72;;;1.20;99.90;;;;;;4980334;28;20022;-71
2020/12/30 05:31:42;;;;;;;12.05;5.93;;;1.10;99.90;;;;;;4980530;28;20030;-71
2020/12/30 05:34:08;;;;;;;10.48;6.30;;;1.10;99.90;;;;;;4980538;28;20041;-71
2020/12/30 05:36:34;;;;;;;12.55;5.47;;;1.10;99.90;;;;;;4979833;28;20133;-73
2020/12/30 05:38:59;;;;;;;11.32;6.18;;;1.10;99.90;;;;;;4980793;28;20034;-72
2020/12/30 05:41:25;;;;;;;9.68;5.43;;;1.00;99.90;;;;;;4975405;28;20034;-72
2020/12/30 05:43:51;;;;;;;10.38;6.30;;;1.00;99.90;;;;;;4980446;28;20621;-72
2020/12/30 05:46:27;;;;;;;15.30;6.70;;;0.90;99.90;;;;;;4978491;28;20101;-72
2020/12/30 05:48:53;;;;;;;9.02;5.65;;;1.00;99.90;;;;;;4979194;28;20057;-71
2020/12/30 05:51:28;;;;;;;10.38;6.20;;;1.00;99.90;;;;;;4977975;28;20684;-71
2020/12/30 05:54:11;;;;;;;10.90;6.18;;;1.00;99.90;;;;;;4977047;28;20113;-72
2020/12/30 05:56:38;;;;;;;10.25;6.72;;;1.00;99.90;;;;;;4975343;28;20111;-72
2020/12/30 05:59:04;;;;;;;17.83;8.20;;;0.90;99.90;;;;;;4960452;28;20039;-74
2020/12/30 06:01:35;;;;;;;11.48;6.13;;;0.90;99.90;;;;;;4960540;28;20038;-72
2020/12/30 06:04:20;;;;;;;19.63;8.70;;;0.80;99.90;;;;;;4960377;28;20082;-72
2020/12/30 06:06:47;;;;;;;13.03;6.37;;;0.90;99.90;;;;;;4960271;28;20137;-72
2020/12/30 06:09:19;;;;;;;12.05;6.30;;;0.80;99.90;;;;;;4960392;28;20038;-71
2020/12/30 06:11:54;;;;;;;12.13;6.82;;;0.80;99.90;;;;;;4958317;28;20042;-71
2020/12/30 06:14:22;;;;;;;13.70;5.78;;;0.90;99.90;;;;;;4971104;28;20042;-72
2020/12/30 06:16:48;;;;;;;16.15;6.25;;;0.80;99.90;;;;;;4968699;28;20051;-68
2020/12/30 06:19:14;;;;;;;39.55;19.48;;;0.60;99.90;;;;;;4972213;28;20961;-72
2020/12/30 06:21:43;;;;;;;13.63;6.57;;;0.50;99.90;;;;;;4938462;28;20042;-71
2020/12/30 06:24:12;;;;;;;9.77;6.10;;;0.50;99.90;;;;;;4961331;28;20133;-71
2020/12/30 06:26:39;;;;;;;9.88;5.93;;;0.40;99.90;;;;;;4961914;28;20150;-72
2020/12/30 06:29:12;;;;;;;13.10;6.07;;;0.30;99.90;;;;;;4972219;28;20834;-71
2020/12/30 06:31:50;;;;;;;9.88;6.18;;;0.30;99.90;;;;;;4968112;28;20057;-72
2020/12/30 06:34:17;;;;;;;13.00;6.45;;;0.20;99.90;;;;;;4958994;28;20117;-72
2020/12/30 06:36:44;;;;;;;14.73;6.28;;;0.10;99.90;;;;;;4960242;28;20039;-72
2020/12/30 06:39:16;;;;;;;12.18;5.95;;;0.10;99.90;;;;;;4968499;28;20796;-72
2020/12/30 06:42:03;;;;;;;10.35;5.82;;;0.00;99.90;;;;;;4966324;28;20790;-71
2020/12/30 06:44:39;;;;;;;10.95;6.50;;;-0.10;99.90;;;;;;4965398;28;20046;-72
2020/12/30 06:47:06;;;;;;;10.88;6.40;;;-0.10;99.90;;;;;;4960562;28;20121;-70
2020/12/30 06:49:32;;;;;;;12.32;6.75;;;-0.10;99.90;;;;;;4961548;28;20037;-69
2020/12/30 06:51:58;;;;;;;16.20;6.95;;;-0.10;99.90;;;;;;4965731;28;20039;-72
2020/12/30 06:54:44;;;;;;;17.63;8.07;;;-0.10;99.90;;;;;;4966369;28;20038;-72
2020/12/30 06:57:09;;;;;;;14.13;7.07;;;0.00;99.90;;;;;;4961100;28;20039;-72
2020/12/30 06:59:36;;;;;;;14.25;7.65;;;0.10;99.90;;;;;;4973757;28;20725;-76
2020/12/30 07:02:03;;;;;;;14.32;8.27;;;0.10;99.90;;;;;;4967876;28;20034;-73
2020/12/30 07:04:34;;;;;;;14.57;8.48;;;0.00;99.90;;;;;;4959396;28;20038;-73
2020/12/30 07:07:00;;;;;;;14.70;8.57;;;0.10;99.90;;;;;;4958567;28;20035;-73
2020/12/30 07:09:33;;;;;;;14.77;7.60;;;0.00;99.90;;;;;;4949967;28;20034;-73
2020/12/30 07:12:00;;;;;;;15.52;8.48;;;0.00;99.90;;;;;;4961003;28;20451;-73
2020/12/30 07:14:27;;;;;;;14.15;7.90;;;-0.10;99.90;;;;;;4965212;28;20038;-72
2020/12/30 07:16:54;;;;;;;11.88;7.15;;;-0.20;99.90;;;;;;4970315;28;20631;-72
2020/12/30 07:19:31;;;;;;;12.27;7.32;;;-0.20;99.90;;;;;;4979444;28;20486;-72
2020/12/30 07:22:00;;;;;;;14.45;7.63;;;-0.30;99.90;;;;;;4966830;28;20402;-72
2020/12/30 07:24:31;;;;;;;15.23;7.90;;;-0.30;99.90;;;;;;4958745;28;20035;-72
2020/12/30 07:27:04;;;;;;;12.07;7.20;;;-0.30;99.90;;;;;;4958095;28;20023;-72
2020/12/30 07:29:30;;;;;;;12.88;7.80;;;-0.40;99.90;;;;;;4964004;28;20042;-72
2020/12/30 07:32:02;;;;;;;14.98;8.75;;;-0.30;99.90;;;;;;4961297;28;20035;-73
2020/12/30 07:34:30;;;;;;;23.02;9.68;;;-0.30;99.90;;;;;;4959046;28;20042;-72
2020/12/30 07:36:57;;;;;;;44.78;19.92;;;-0.20;99.90;;;;;;4956803;28;20046;-73
2020/12/30 07:39:25;;;;;;;18.55;9.30;;;-0.10;99.90;;;;;;4961077;28;20499;-73
2020/12/30 07:41:52;;;;;;;18.15;9.35;;;0.10;99.90;;;;;;4959476;28;20042;-73
2020/12/30 07:44:18;;;;;;;15.75;9.90;;;0.20;99.90;;;;;;4966091;28;20045;-72
2020/12/30 07:46:44;;;;;;;16.60;10.00;;;0.20;99.90;;;;;;4970888;28;20026;-72
2020/12/30 07:49:15;;;;;;;16.70;10.00;;;0.30;99.90;;;;;;4970556;28;20654;-73
2020/12/30 07:51:55;;;;;;;19.10;10.15;;;0.40;99.90;;;;;;4970861;28;20463;-73
2020/12/30 07:54:22;;;;;;;15.95;8.70;;;0.40;99.90;;;;;;4968279;28;20073;-72
2020/12/30 07:56:49;;;;;;;19.17;8.10;;;0.50;99.90;;;;;;4969842;28;20380;-73
2020/12/30 07:59:23;;;;;;;13.02;7.57;;;0.60;99.90;;;;;;4970096;28;20031;-72
2020/12/30 08:01:56;;;;;;;13.75;7.60;;;0.60;99.90;;;;;;4975433;28;20038;-73
2020/12/30 08:04:22;;;;;;;16.20;7.57;;;0.60;99.90;;;;;;4967077;28;20031;-73
2020/12/30 08:06:48;;;;;;;16.27;8.50;;;0.60;99.90;;;;;;4971926;28;20046;-73
2020/12/30 08:09:15;;;;;;;15.00;7.90;;;0.70;99.90;;;;;;4972678;28;20038;-72
2020/12/30 08:11:51;;;;;;;16.77;7.80;;;0.70;99.90;;;;;;4963055;28;20133;-73
2020/12/30 08:14:18;;;;;;;15.10;7.70;;;0.80;99.90;;;;;;4989631;28;20043;-73
2020/12/30 08:16:54;;;;;;;20.60;8.27;;;0.90;99.90;;;;;;4962859;28;20714;-72
2020/12/30 08:19:36;;;;;;;14.63;7.75;;;1.00;99.90;;;;;;4984957;28;20129;-73
2020/12/30 08:22:17;;;;;;;13.20;7.40;;;1.00;99.90;;;;;;4965558;28;20049;-72
2020/12/30 08:24:50;;;;;;;12.43;7.05;;;1.10;99.90;;;;;;4947597;28;20042;-72
2020/12/30 08:27:19;;;;;;;10.65;6.63;;;1.20;99.90;;;;;;4967825;28;20041;-72
2020/12/30 08:29:45;;;;;;;14.15;6.72;;;1.20;99.90;;;;;;4967429;28;20069;-72
2020/12/30 08:32:31;;;;;;;25.13;11.98;;;1.40;99.90;;;;;;4953560;28;20089;-68
2020/12/30 08:35:08;;;;;;;11.02;6.22;;;1.50;99.90;;;;;;4975484;28;20062;-72
2020/12/30 08:37:45;;;;;;;13.57;6.95;;;1.50;99.90;;;;;;4970725;28;20053;-71
2020/12/30 08:40:33;;;;;;;12.43;6.70;;;1.60;99.90;;;;;;4962025;28;20034;-71
2020/12/30 08:43:11;;;;;;;12.07;6.97;;;1.80;99.90;;;;;;4965450;28;20817;-71
2020/12/30 08:45:49;;;;;;;11.65;6.03;;;1.90;99.90;;;;;;4969513;28;20030;-72
2020/12/30 08:48:17;;;;;;;14.27;7.40;;;1.90;99.90;;;;;;4967102;28;20828;-71
2020/12/30 08:50:44;;;;;;;13.18;6.63;;;1.90;99.90;;;;;;4949511;28;20621;-70
2020/12/30 08:53:11;;;;;;;9.85;6.07;;;2.00;99.90;;;;;;4969980;28;20038;-71
2020/12/30 08:55:38;;;;;;;13.77;6.05;;;2.10;99.90;;;;;;4966422;28;20038;-71
2020/12/30 08:58:04;;;;;;;10.70;5.70;;;2.10;99.90;;;;;;4975319;28;20034;-71
2020/12/30 09:00:35;;;;;;;10.43;5.30;;;2.20;99.90;;;;;;4964845;28;20609;-71
2020/12/30 09:03:12;;;;;;;9.95;5.68;;;2.30;99.90;;;;;;4964727;28;20042;-71
2020/12/30 09:05:38;;;;;;;9.23;5.50;;;2.40;99.90;;;;;;4960136;28;20445;-71
2020/12/30 09:08:14;;;;;;;10.32;5.60;;;2.50;99.90;;;;;;4964046;28;20031;-71
2020/12/30 09:10:41;;;;;;;7.82;5.07;;;2.50;99.90;;;;;;4965528;28;20058;-71
2020/12/30 09:13:14;;;;;;;9.65;5.82;;;2.50;99.90;;;;;;4976508;28;20038;-72
2020/12/30 09:15:41;;;;;;;9.65;5.50;;;2.40;99.90;;;;;;4968335;28;20038;-71
2020/12/30 09:18:09;;;;;;;12.55;5.40;;;2.40;99.90;;;;;;4967589;28;20566;-71
2020/12/30 09:20:35;;;;;;;9.98;5.00;;;2.40;99.90;;;;;;4960298;28;20042;-71
2020/12/30 09:23:01;;;;;;;8.23;5.30;;;2.40;99.90;;;;;;4972745;28;20035;-67
2020/12/30 09:25:29;;;;;;;11.95;6.35;;;2.60;99.90;;;;;;4963915;28;20053;-72
2020/12/30 09:27:55;;;;;;;10.45;5.32;;;2.90;99.90;;;;;;4960797;28;20086;-77
2020/12/30 09:30:25;;;;;;;9.50;5.65;;;3.00;99.90;;;;;;4951901;28;20030;-73
2020/12/30 09:32:55;;;;;;;10.38;5.90;;;3.10;99.90;;;;;;4971695;28;20041;-72
2020/12/30 09:35:29;;;;;;;12.38;6.25;;;3.30;99.90;;;;;;4965957;28;20035;-69
2020/12/30 09:37:56;;;;;;;9.38;5.25;;;3.30;99.90;;;;;;4975486;28;20606;-72
2020/12/30 09:40:23;;;;;;;8.63;5.15;;;3.40;99.90;;;;;;4978435;28;20038;-72
2020/12/30 09:42:50;;;;;;;10.82;5.40;;;3.40;99.90;;;;;;4962606;28;20033;-72
2020/12/30 09:45:18;;;;;;;10.48;5.70;;;3.50;99.90;;;;;;4969919;28;20131;-72
2020/12/30 09:47:44;;;;;;;9.00;5.38;;;3.50;99.90;;;;;;4967952;28;20082;-72
2020/12/30 09:50:12;;;;;;;8.65;4.93;;;3.60;99.90;;;;;;4971250;28;20503;-72
2020/12/30 09:52:40;;;;;;;8.38;4.90;;;3.70;99.90;;;;;;4948616;28;20047;-71
2020/12/30 09:55:07;;;;;;;8.05;5.18;;;3.70;99.90;;;;;;4966610;28;20581;-72
2020/12/30 09:57:33;;;;;;;12.07;5.63;;;3.80;99.90;;;;;;4968630;28;20633;-72
2020/12/30 10:00:00;;;;;;;10.10;4.93;;;3.90;99.90;;;;;;4970283;28;20042;-72
2020/12/30 10:02:29;;;;;;;9.80;5.28;;;4.00;99.90;;;;;;4947239;28;20125;-72
2020/12/30 10:04:54;;;;;;;9.13;5.07;;;4.20;99.90;;;;;;4963527;28;20039;-72
2020/12/30 10:07:20;;;;;;;9.05;5.15;;;4.30;99.90;;;;;;4968349;28;20027;-72
2020/12/30 10:09:46;;;;;;;15.32;4.93;;;4.40;99.90;;;;;;4968744;28;20026;-73
2020/12/30 10:12:12;;;;;;;7.55;5.00;;;4.60;99.90;;;;;;4971072;28;20816;-73
2020/12/30 10:14:37;;;;;;;8.88;4.97;;;4.60;99.90;;;;;;4965652;28;20851;-72
2020/12/30 10:17:06;;;;;;;8.95;5.18;;;4.60;99.90;;;;;;4947712;28;20073;-73
2020/12/30 10:19:32;;;;;;;7.22;4.45;;;4.70;99.90;;;;;;4968397;28;20073;-73
2020/12/30 10:21:57;;;;;;;9.90;5.32;;;4.80;99.90;;;;;;4965993;28;20824;-73
2020/12/30 10:24:23;;;;;;;9.88;4.72;;;4.90;99.90;;;;;;4961503;28;20034;-73
2020/12/30 10:26:49;;;;;;;10.65;5.07;;;5.00;99.90;;;;;;4951560;28;20407;-73
2020/12/30 10:29:14;;;;;;;8.57;4.53;;;5.10;99.90;;;;;;4966298;28;20204;-72
2020/12/30 10:31:40;;;;;;;11.20;4.72;;;5.20;99.90;;;;;;4963216;28;20045;-72
2020/12/30 10:34:06;;;;;;;8.30;4.65;;;5.10;99.90;;;;;;4957304;28;20042;-72
2020/12/30 10:36:32;;;;;;;6.28;4.25;;;5.10;99.90;;;;;;4966309;28;20034;-72
2020/12/30 10:39:00;;;;;;;8.23;4.47;;;5.20;99.90;;;;;;4966454;28;20034;-73
2020/12/30 10:41:27;;;;;;;10.77;4.80;;;5.20;99.90;;;;;;4961315;28;20031;-72
2020/12/30 10:43:53;;;;;;;8.70;5.35;;;5.20;99.90;;;;;;4963228;28;20034;-72
2020/12/30 10:46:19;;;;;;;9.07;5.03;;;5.20;99.90;;;;;;4969321;28;20041;-72
2020/12/30 10:48:46;;;;;;;10.05;5.10;;;5.30;99.90;;;;;;4967850;28;20034;-72
2020/12/30 10:51:16;;;;;;;10.00;5.47;;;5.30;99.90;;;;;;4962733;28;20573;-72
2020/12/30 10:53:42;;;;;;;9.75;5.50;;;5.40;99.90;;;;;;4968087;28;20038;-72
2020/12/30 10:56:13;;;;;;;6.90;4.47;;;5.50;99.90;;;;;;4964578;28;20042;-73
2020/12/30 10:58:39;;;;;;;7.20;4.05;;;5.60;99.90;;;;;;4970869;28;20118;-72
2020/12/30 11:01:12;;;;;;;8.27;5.00;;;5.80;99.90;;;;;;4964205;28;20663;-73
2020/12/30 11:03:39;;;;;;;7.10;4.85;;;6.10;99.90;;;;;;4961997;28;20034;-72
2020/12/30 11:06:06;;;;;;;8.73;4.80;;;6.20;99.90;;;;;;4963685;28;20050;-71
2020/12/30 11:08:32;;;;;;;10.98;4.80;;;6.00;99.90;;;;;;4960490;28;20046;-73
2020/12/30 11:10:59;;;;;;;7.00;4.20;;;6.00;99.90;;;;;;4961937;28;20051;-72
2020/12/30 11:13:26;;;;;;;7.50;4.35;;;6.10;99.90;;;;;;4968589;28;20065;-78
2020/12/30 11:15:53;;;;;;;7.70;4.57;;;6.30;99.90;;;;;;4973567;28;20057;-73
2020/12/30 11:18:19;;;;;;;7.47;3.97;;;6.40;99.90;;;;;;4952917;28;20070;-73
2020/12/30 11:20:45;;;;;;;8.07;4.60;;;6.50;99.90;;;;;;4952095;28;20042;-75
2020/12/30 11:23:11;;;;;;;9.30;4.57;;;6.30;99.90;;;;;;4948817;28;20141;-73
2020/12/30 11:25:38;;;;;;;8.30;4.13;;;6.40;99.90;;;;;;4966892;28;20073;-73
2020/12/30 11:28:04;;;;;;;7.25;4.18;;;6.60;99.90;;;;;;4965972;28;20093;-73
2020/12/30 11:30:32;;;;;;;7.32;4.22;;;6.80;99.90;;;;;;4965541;28;20042;-74
2020/12/30 11:32:58;;;;;;;9.55;5.07;;;6.80;99.90;;;;;;4964677;28;20066;-74
2020/12/30 11:35:27;;;;;;;10.15;5.53;;;6.50;99.90;;;;;;4966321;28;20846;-74
2020/12/30 11:37:52;;;;;;;8.13;4.68;;;6.50;99.90;;;;;;4971954;28;20080;-72
2020/12/30 11:40:18;;;;;;;10.63;4.78;;;6.50;99.90;;;;;;4965529;28;20475;-73
2020/12/30 11:42:44;;;;;;;6.82;4.55;;;6.70;99.90;;;;;;4968256;28;20035;-73
2020/12/30 11:45:10;;;;;;;13.68;6.97;;;6.70;99.90;;;;;;4969499;28;20114;-74
2020/12/30 11:47:36;;;;;;;6.72;4.47;;;6.90;99.90;;;;;;4977138;28;20030;-73
2020/12/30 11:50:03;;;;;;;14.43;7.18;;;6.70;99.90;;;;;;4968258;28;20031;-73
2020/12/30 11:52:28;;;;;;;6.93;4.35;;;6.80;99.90;;;;;;4967864;28;20066;-73
2020/12/30 11:54:54;;;;;;;8.82;4.68;;;6.90;99.90;;;;;;4994686;28;20435;-73
2020/12/30 11:57:20;;;;;;;8.93;4.93;;;7.10;99.90;;;;;;4967517;28;20133;-73
2020/12/30 11:59:45;;;;;;;13.27;7.75;;;7.30;99.90;;;;;;4966484;28;20047;-71
2020/12/30 12:02:11;;;;;;;11.93;4.82;;;7.40;99.90;;;;;;4975067;28;20565;-73
2020/12/30 12:04:37;;;;;;;12.38;6.53;;;7.30;99.90;;;;;;4974842;28;20037;-73
2020/12/30 12:07:03;;;;;;;9.38;5.60;;;7.30;99.90;;;;;;4967358;28;20039;-73
2020/12/30 12:09:29;;;;;;;8.88;5.93;;;7.60;99.90;;;;;;4967508;28;20126;-73
2020/12/30 12:11:55;;;;;;;8.60;4.40;;;7.90;99.90;;;;;;4970558;28;20068;-73
2020/12/30 12:14:21;;;;;;;8.98;4.43;;;7.70;99.90;;;;;;4974803;28;20034;-72
2020/12/30 12:16:53;;;;;;;10.88;4.35;;;7.60;99.90;;;;;;4969750;28;20030;-73
2020/12/30 12:19:19;;;;;;;6.88;4.22;;;7.50;99.90;;;;;;4974282;28;20069;-72
2020/12/30 12:21:45;;;;;;;7.63;4.25;;;7.70;99.90;;;;;;4964845;28;20126;-72
2020/12/30 12:24:12;;;;;;;9.27;5.22;;;7.60;99.90;;;;;;4961452;28;20061;-72
2020/12/30 12:26:38;;;;;;;7.72;4.63;;;7.70;99.90;;;;;;4965333;28;20031;-72
2020/12/30 12:29:36;;;;;;;6.97;3.80;;;8.20;99.90;;;;;;4971828;28;20022;-67
2020/12/30 12:32:06;;;;;;;5.80;3.45;;;8.20;99.90;;;;;;4966848;28;20073;-67
2020/12/30 12:34:37;;;;;;;8.00;3.47;;;8.10;99.90;;;;;;4968657;28;20929;-66
2020/12/30 12:37:05;;;;;;;22.35;9.98;;;7.80;99.90;;;;;;4959701;28;20030;-66
2020/12/30 12:39:32;;;;;;;7.70;3.65;;;7.50;99.90;;;;;;4971776;28;20093;-71
2020/12/30 12:41:58;;;;;;;6.00;3.75;;;7.40;99.90;;;;;;4968239;28;20046;-72
2020/12/30 12:44:24;;;;;;;10.85;4.03;;;7.50;99.90;;;;;;4966407;28;20026;-72
2020/12/30 12:46:50;;;;;;;6.80;3.65;;;7.50;99.90;;;;;;4973703;28;20037;-73
2020/12/30 12:49:16;;;;;;;8.35;4.45;;;7.40;99.90;;;;;;4972575;28;20031;-73
2020/12/30 12:51:47;;;;;;;6.63;4.10;;;7.30;99.90;;;;;;4973433;28;20074;-73
2020/12/30 12:54:13;;;;;;;9.40;4.47;;;6.90;99.90;;;;;;4968254;28;20466;-73
2020/12/30 12:56:38;;;;;;;6.53;4.22;;;6.80;99.90;;;;;;4970044;28;20034;-72